sensor_id;sensor_type;location;lat;lon;timestamp;P1;durP1;ratioP1;P2;durP2;ratioP2
66264;SDS011;53055;44.648;21.148;2022-08-21T00:01:05;26.77;;;23.85;;
66264;SDS011;53055;44.648;21.148;2022-08-21T00:03:32;27.23;;;24.33;;
66264;SDS011;53055;44.648;21.148;2022-08-21T00:05:58;28.73;;;25.73;;
66264;SDS011;53055;44.648;21.148;2022-08-21T00:08:24;28.10;;;25.10;;
66264;SDS011;53055;44.648;21.148;2022-08-21T00:10:50;29.13;;;26.23;;
66264;SDS011;53055;44.648;21.148;2022-08-21T00:13:16;29.95;;;26.98;;
66264;SDS011;53055;44.648;21.148;2022-08-21T00:15:43;29.77;;;26.80;;
66264;SDS011;53055;44.648;21.148;2022-08-21T00:18:09;31.40;;;28.17;;
66264;SDS011;53055;44.648;21.148;2022-08-21T00:20:36;31.08;;;27.88;;
66264;SDS011;53055;44.648;21.148;2022-08-21T00:23:02;32.58;;;29.13;;
66264;SDS011;53055;44.648;21.148;2022-08-21T00:25:29;32.15;;;28.90;;
66264;SDS011;53055;44.648;21.148;2022-08-21T00:27:55;31.63;;;28.42;;
66264;SDS011;53055;44.648;21.148;2022-08-21T00:30:22;33.63;;;30.38;;
66264;SDS011;53055;44.648;21.148;2022-08-21T00:32:48;32.60;;;29.40;;
66264;SDS011;53055;44.648;21.148;2022-08-21T00:35:15;34.67;;;31.27;;
66264;SDS011;53055;44.648;21.148;2022-08-21T00:37:42;33.08;;;29.92;;
66264;SDS011;53055;44.648;21.148;2022-08-21T00:40:11;34.00;;;30.63;;
66264;SDS011;53055;44.648;21.148;2022-08-21T00:42:37;35.45;;;31.95;;
66264;SDS011;53055;44.648;21.148;2022-08-21T00:45:04;35.10;;;31.50;;
66264;SDS011;53055;44.648;21.148;2022-08-21T00:47:31;36.33;;;32.63;;
66264;SDS011;53055;44.648;21.148;2022-08-21T00:49:57;34.85;;;31.52;;
66264;SDS011;53055;44.648;21.148;2022-08-21T00:52:24;33.40;;;29.88;;
66264;SDS011;53055;44.648;21.148;2022-08-21T00:54:52;35.25;;;31.75;;
66264;SDS011;53055;44.648;21.148;2022-08-21T00:57:21;33.92;;;30.42;;
66264;SDS011;53055;44.648;21.148;2022-08-21T00:59:48;33.40;;;29.92;;
66264;SDS011;53055;44.648;21.148;2022-08-21T01:02:15;34.80;;;31.13;;
66264;SDS011;53055;44.648;21.148;2022-08-21T01:04:41;32.90;;;29.63;;
66264;SDS011;53055;44.648;21.148;2022-08-21T01:07:07;35.90;;;31.98;;
66264;SDS011;53055;44.648;21.148;2022-08-21T01:09:34;34.88;;;31.17;;
66264;SDS011;53055;44.648;21.148;2022-08-21T01:12:00;34.45;;;30.98;;
66264;SDS011;53055;44.648;21.148;2022-08-21T01:14:26;32.67;;;29.17;;
66264;SDS011;53055;44.648;21.148;2022-08-21T01:16:53;35.85;;;31.77;;
66264;SDS011;53055;44.648;21.148;2022-08-21T01:19:20;34.58;;;31.02;;
66264;SDS011;53055;44.648;21.148;2022-08-21T01:21:46;33.60;;;30.05;;
66264;SDS011;53055;44.648;21.148;2022-08-21T01:24:12;34.58;;;30.80;;
66264;SDS011;53055;44.648;21.148;2022-08-21T01:26:38;33.28;;;29.85;;
66264;SDS011;53055;44.648;21.148;2022-08-21T01:31:49;34.97;;;31.40;;
66264;SDS011;53055;44.648;21.148;2022-08-21T01:34:15;39.30;;;31.02;;
66264;SDS011;53055;44.648;21.148;2022-08-21T01:36:42;34.25;;;30.75;;
66264;SDS011;53055;44.648;21.148;2022-08-21T01:39:09;33.42;;;29.98;;
66264;SDS011;53055;44.648;21.148;2022-08-21T01:41:35;32.15;;;28.80;;
66264;SDS011;53055;44.648;21.148;2022-08-21T01:44:01;32.20;;;27.65;;
66264;SDS011;53055;44.648;21.148;2022-08-21T01:46:27;31.15;;;27.60;;
66264;SDS011;53055;44.648;21.148;2022-08-21T01:48:53;29.23;;;26.20;;
66264;SDS011;53055;44.648;21.148;2022-08-21T01:51:19;29.25;;;26.15;;
66264;SDS011;53055;44.648;21.148;2022-08-21T01:53:45;32.42;;;28.20;;
66264;SDS011;53055;44.648;21.148;2022-08-21T01:56:12;32.50;;;29.05;;
66264;SDS011;53055;44.648;21.148;2022-08-21T01:58:42;30.67;;;27.42;;
66264;SDS011;53055;44.648;21.148;2022-08-21T02:01:08;30.15;;;26.88;;
66264;SDS011;53055;44.648;21.148;2022-08-21T02:03:35;31.67;;;28.40;;
66264;SDS011;53055;44.648;21.148;2022-08-21T02:06:01;33.78;;;28.48;;
66264;SDS011;53055;44.648;21.148;2022-08-21T02:08:27;29.42;;;25.88;;
66264;SDS011;53055;44.648;21.148;2022-08-21T02:10:54;28.25;;;25.27;;
66264;SDS011;53055;44.648;21.148;2022-08-21T02:13:20;28.10;;;25.13;;
66264;SDS011;53055;44.648;21.148;2022-08-21T02:15:46;26.88;;;23.63;;
66264;SDS011;53055;44.648;21.148;2022-08-21T02:18:12;25.20;;;22.17;;
66264;SDS011;53055;44.648;21.148;2022-08-21T02:20:40;26.90;;;23.98;;
66264;SDS011;53055;44.648;21.148;2022-08-21T02:23:06;25.33;;;21.98;;
66264;SDS011;53055;44.648;21.148;2022-08-21T02:25:33;25.52;;;21.85;;
66264;SDS011;53055;44.648;21.148;2022-08-21T02:27:59;24.02;;;20.65;;
66264;SDS011;53055;44.648;21.148;2022-08-21T02:30:32;23.40;;;20.85;;
66264;SDS011;53055;44.648;21.148;2022-08-21T02:32:58;23.30;;;20.88;;
66264;SDS011;53055;44.648;21.148;2022-08-21T02:35:25;22.63;;;20.02;;
66264;SDS011;53055;44.648;21.148;2022-08-21T02:37:52;20.92;;;18.08;;
66264;SDS011;53055;44.648;21.148;2022-08-21T02:40:20;21.85;;;18.52;;
66264;SDS011;53055;44.648;21.148;2022-08-21T02:42:46;22.55;;;19.58;;
66264;SDS011;53055;44.648;21.148;2022-08-21T02:45:13;20.30;;;17.92;;
66264;SDS011;53055;44.648;21.148;2022-08-21T02:47:40;21.88;;;19.67;;
66264;SDS011;53055;44.648;21.148;2022-08-21T02:50:06;24.77;;;19.95;;
66264;SDS011;53055;44.648;21.148;2022-08-21T02:52:32;22.40;;;19.58;;
66264;SDS011;53055;44.648;21.148;2022-08-21T02:54:59;22.15;;;17.30;;
66264;SDS011;53055;44.648;21.148;2022-08-21T02:57:25;19.23;;;17.08;;
66264;SDS011;53055;44.648;21.148;2022-08-21T02:59:51;18.55;;;15.43;;
66264;SDS011;53055;44.648;21.148;2022-08-21T03:02:17;19.05;;;14.48;;
66264;SDS011;53055;44.648;21.148;2022-08-21T03:04:43;18.17;;;14.88;;
66264;SDS011;53055;44.648;21.148;2022-08-21T03:07:09;18.13;;;14.18;;
66264;SDS011;53055;44.648;21.148;2022-08-21T03:09:35;18.27;;;14.25;;
66264;SDS011;53055;44.648;21.148;2022-08-21T03:12:02;19.85;;;14.57;;
66264;SDS011;53055;44.648;21.148;2022-08-21T03:14:29;18.02;;;14.20;;
66264;SDS011;53055;44.648;21.148;2022-08-21T03:16:55;16.23;;;13.35;;
66264;SDS011;53055;44.648;21.148;2022-08-21T03:19:21;17.05;;;12.88;;
66264;SDS011;53055;44.648;21.148;2022-08-21T03:21:47;16.10;;;12.50;;
66264;SDS011;53055;44.648;21.148;2022-08-21T03:24:13;19.95;;;14.30;;
66264;SDS011;53055;44.648;21.148;2022-08-21T03:26:39;17.52;;;12.70;;
66264;SDS011;53055;44.648;21.148;2022-08-21T03:29:06;17.63;;;13.98;;
66264;SDS011;53055;44.648;21.148;2022-08-21T03:31:32;17.02;;;13.32;;
66264;SDS011;53055;44.648;21.148;2022-08-21T03:33:58;19.65;;;13.80;;
66264;SDS011;53055;44.648;21.148;2022-08-21T03:36:24;19.63;;;13.30;;
66264;SDS011;53055;44.648;21.148;2022-08-21T03:38:50;16.55;;;12.95;;
66264;SDS011;53055;44.648;21.148;2022-08-21T03:41:16;16.88;;;12.45;;
66264;SDS011;53055;44.648;21.148;2022-08-21T03:43:42;15.88;;;12.18;;
66264;SDS011;53055;44.648;21.148;2022-08-21T03:46:09;17.30;;;12.23;;
66264;SDS011;53055;44.648;21.148;2022-08-21T03:48:36;18.55;;;12.90;;
66264;SDS011;53055;44.648;21.148;2022-08-21T03:51:02;18.48;;;12.73;;
66264;SDS011;53055;44.648;21.148;2022-08-21T03:53:28;16.58;;;13.32;;
66264;SDS011;53055;44.648;21.148;2022-08-21T03:55:55;16.25;;;12.55;;
66264;SDS011;53055;44.648;21.148;2022-08-21T03:58:23;14.90;;;13.10;;
66264;SDS011;53055;44.648;21.148;2022-08-21T04:00:51;16.80;;;13.23;;
66264;SDS011;53055;44.648;21.148;2022-08-21T04:03:18;14.32;;;12.73;;
66264;SDS011;53055;44.648;21.148;2022-08-21T04:05:44;11.93;;;9.68;;
66264;SDS011;53055;44.648;21.148;2022-08-21T04:08:11;9.25;;;7.00;;
66264;SDS011;53055;44.648;21.148;2022-08-21T04:10:37;7.53;;;5.50;;
66264;SDS011;53055;44.648;21.148;2022-08-21T04:13:04;8.75;;;5.20;;
66264;SDS011;53055;44.648;21.148;2022-08-21T04:15:31;7.03;;;5.03;;
66264;SDS011;53055;44.648;21.148;2022-08-21T04:17:57;6.22;;;4.20;;
66264;SDS011;53055;44.648;21.148;2022-08-21T04:20:24;7.05;;;4.80;;
66264;SDS011;53055;44.648;21.148;2022-08-21T04:22:50;7.55;;;4.70;;
66264;SDS011;53055;44.648;21.148;2022-08-21T04:25:17;6.85;;;3.88;;
66264;SDS011;53055;44.648;21.148;2022-08-21T04:27:43;7.97;;;4.35;;
66264;SDS011;53055;44.648;21.148;2022-08-21T04:30:10;7.10;;;3.97;;
66264;SDS011;53055;44.648;21.148;2022-08-21T04:32:37;5.78;;;3.80;;
66264;SDS011;53055;44.648;21.148;2022-08-21T04:35:05;7.18;;;4.10;;
66264;SDS011;53055;44.648;21.148;2022-08-21T04:37:32;5.80;;;3.75;;
66264;SDS011;53055;44.648;21.148;2022-08-21T04:39:58;6.47;;;3.80;;
66264;SDS011;53055;44.648;21.148;2022-08-21T04:42:25;6.45;;;4.30;;
66264;SDS011;53055;44.648;21.148;2022-08-21T04:44:51;7.32;;;4.03;;
66264;SDS011;53055;44.648;21.148;2022-08-21T04:47:17;7.03;;;4.15;;
66264;SDS011;53055;44.648;21.148;2022-08-21T04:49:44;6.65;;;3.90;;
66264;SDS011;53055;44.648;21.148;2022-08-21T04:52:11;7.35;;;3.97;;
66264;SDS011;53055;44.648;21.148;2022-08-21T04:54:37;6.55;;;3.60;;
66264;SDS011;53055;44.648;21.148;2022-08-21T04:57:04;6.55;;;3.80;;
66264;SDS011;53055;44.648;21.148;2022-08-21T04:59:39;6.05;;;4.22;;
66264;SDS011;53055;44.648;21.148;2022-08-21T05:02:07;6.65;;;4.10;;
66264;SDS011;53055;44.648;21.148;2022-08-21T05:04:34;7.97;;;4.20;;
66264;SDS011;53055;44.648;21.148;2022-08-21T05:07:03;5.65;;;3.75;;
66264;SDS011;53055;44.648;21.148;2022-08-21T05:09:30;6.03;;;3.83;;
66264;SDS011;53055;44.648;21.148;2022-08-21T05:11:57;7.32;;;4.13;;
66264;SDS011;53055;44.648;21.148;2022-08-21T05:14:23;6.75;;;4.28;;
66264;SDS011;53055;44.648;21.148;2022-08-21T05:16:52;7.30;;;4.00;;
66264;SDS011;53055;44.648;21.148;2022-08-21T05:19:18;7.13;;;4.20;;
66264;SDS011;53055;44.648;21.148;2022-08-21T05:21:45;6.55;;;4.55;;
66264;SDS011;53055;44.648;21.148;2022-08-21T05:24:12;6.80;;;4.97;;
66264;SDS011;53055;44.648;21.148;2022-08-21T05:26:39;7.60;;;4.15;;
66264;SDS011;53055;44.648;21.148;2022-08-21T05:29:05;6.20;;;4.35;;
66264;SDS011;53055;44.648;21.148;2022-08-21T05:31:31;6.30;;;4.40;;
66264;SDS011;53055;44.648;21.148;2022-08-21T05:33:58;6.70;;;4.30;;
66264;SDS011;53055;44.648;21.148;2022-08-21T05:36:24;6.07;;;4.43;;
66264;SDS011;53055;44.648;21.148;2022-08-21T05:38:50;6.63;;;4.47;;
66264;SDS011;53055;44.648;21.148;2022-08-21T05:41:16;6.57;;;4.60;;
66264;SDS011;53055;44.648;21.148;2022-08-21T05:43:42;6.60;;;4.63;;
66264;SDS011;53055;44.648;21.148;2022-08-21T05:46:09;6.75;;;4.15;;
66264;SDS011;53055;44.648;21.148;2022-08-21T05:48:35;6.95;;;4.28;;
66264;SDS011;53055;44.648;21.148;2022-08-21T05:51:05;7.05;;;4.20;;
66264;SDS011;53055;44.648;21.148;2022-08-21T05:53:31;6.38;;;4.22;;
66264;SDS011;53055;44.648;21.148;2022-08-21T05:55:57;8.98;;;4.22;;
66264;SDS011;53055;44.648;21.148;2022-08-21T05:58:23;7.32;;;4.65;;
66264;SDS011;53055;44.648;21.148;2022-08-21T06:00:51;6.15;;;4.25;;
66264;SDS011;53055;44.648;21.148;2022-08-21T06:03:22;7.60;;;4.63;;
66264;SDS011;53055;44.648;21.148;2022-08-21T06:05:48;8.00;;;5.63;;
66264;SDS011;53055;44.648;21.148;2022-08-21T06:08:15;10.00;;;5.88;;
66264;SDS011;53055;44.648;21.148;2022-08-21T06:10:41;9.32;;;6.10;;
66264;SDS011;53055;44.648;21.148;2022-08-21T06:13:07;8.75;;;5.93;;
66264;SDS011;53055;44.648;21.148;2022-08-21T06:15:33;9.23;;;6.22;;
66264;SDS011;53055;44.648;21.148;2022-08-21T06:17:59;10.45;;;6.97;;
66264;SDS011;53055;44.648;21.148;2022-08-21T06:20:26;10.68;;;7.53;;
66264;SDS011;53055;44.648;21.148;2022-08-21T06:22:52;11.35;;;8.48;;
66264;SDS011;53055;44.648;21.148;2022-08-21T06:25:18;11.45;;;8.35;;
66264;SDS011;53055;44.648;21.148;2022-08-21T06:27:44;10.27;;;8.23;;
66264;SDS011;53055;44.648;21.148;2022-08-21T06:30:11;12.85;;;9.73;;
66264;SDS011;53055;44.648;21.148;2022-08-21T06:32:37;10.95;;;8.68;;
66264;SDS011;53055;44.648;21.148;2022-08-21T06:35:03;9.85;;;8.52;;
66264;SDS011;53055;44.648;21.148;2022-08-21T06:37:30;11.60;;;8.20;;
66264;SDS011;53055;44.648;21.148;2022-08-21T06:39:56;11.20;;;7.63;;
66264;SDS011;53055;44.648;21.148;2022-08-21T06:42:22;10.13;;;7.88;;
66264;SDS011;53055;44.648;21.148;2022-08-21T06:44:48;11.25;;;7.75;;
66264;SDS011;53055;44.648;21.148;2022-08-21T06:47:15;11.00;;;7.60;;
66264;SDS011;53055;44.648;21.148;2022-08-21T06:49:41;11.65;;;7.53;;
66264;SDS011;53055;44.648;21.148;2022-08-21T06:52:11;11.88;;;8.02;;
66264;SDS011;53055;44.648;21.148;2022-08-21T06:54:38;11.35;;;7.75;;
66264;SDS011;53055;44.648;21.148;2022-08-21T06:57:04;10.63;;;8.35;;
66264;SDS011;53055;44.648;21.148;2022-08-21T06:59:31;12.57;;;8.65;;
66264;SDS011;53055;44.648;21.148;2022-08-21T07:01:58;11.75;;;8.63;;
66264;SDS011;53055;44.648;21.148;2022-08-21T07:04:24;11.85;;;9.00;;
66264;SDS011;53055;44.648;21.148;2022-08-21T07:06:50;13.35;;;9.60;;
66264;SDS011;53055;44.648;21.148;2022-08-21T07:09:16;13.02;;;9.85;;
66264;SDS011;53055;44.648;21.148;2022-08-21T07:11:50;13.98;;;9.43;;
66264;SDS011;53055;44.648;21.148;2022-08-21T07:14:17;15.13;;;11.30;;
66264;SDS011;53055;44.648;21.148;2022-08-21T07:16:43;13.73;;;10.82;;
66264;SDS011;53055;44.648;21.148;2022-08-21T07:19:09;12.70;;;9.90;;
66264;SDS011;53055;44.648;21.148;2022-08-21T07:21:35;14.35;;;11.00;;
66264;SDS011;53055;44.648;21.148;2022-08-21T07:24:02;15.02;;;10.27;;
66264;SDS011;53055;44.648;21.148;2022-08-21T07:26:28;14.65;;;10.65;;
66264;SDS011;53055;44.648;21.148;2022-08-21T07:28:54;14.02;;;11.45;;
66264;SDS011;53055;44.648;21.148;2022-08-21T07:31:21;15.30;;;12.15;;
66264;SDS011;53055;44.648;21.148;2022-08-21T07:33:47;16.33;;;12.98;;
66264;SDS011;53055;44.648;21.148;2022-08-21T07:36:14;19.15;;;14.65;;
66264;SDS011;53055;44.648;21.148;2022-08-21T07:38:41;17.95;;;14.35;;
66264;SDS011;53055;44.648;21.148;2022-08-21T07:41:10;18.85;;;14.48;;
66264;SDS011;53055;44.648;21.148;2022-08-21T07:43:38;18.27;;;15.95;;
66264;SDS011;53055;44.648;21.148;2022-08-21T07:46:04;19.92;;;16.58;;
66264;SDS011;53055;44.648;21.148;2022-08-21T07:48:30;19.20;;;16.92;;
66264;SDS011;53055;44.648;21.148;2022-08-21T07:50:56;18.83;;;16.00;;
66264;SDS011;53055;44.648;21.148;2022-08-21T07:53:23;20.70;;;17.52;;
66264;SDS011;53055;44.648;21.148;2022-08-21T07:55:49;20.65;;;16.98;;
66264;SDS011;53055;44.648;21.148;2022-08-21T07:58:15;20.13;;;17.27;;
66264;SDS011;53055;44.648;21.148;2022-08-21T08:00:42;20.92;;;17.33;;
66264;SDS011;53055;44.648;21.148;2022-08-21T08:03:08;20.35;;;17.58;;
66264;SDS011;53055;44.648;21.148;2022-08-21T08:05:34;19.27;;;17.30;;
66264;SDS011;53055;44.648;21.148;2022-08-21T08:08:02;20.83;;;17.65;;
66264;SDS011;53055;44.648;21.148;2022-08-21T08:10:28;19.17;;;16.70;;
66264;SDS011;53055;44.648;21.148;2022-08-21T08:12:54;19.40;;;16.15;;
66264;SDS011;53055;44.648;21.148;2022-08-21T08:15:22;18.15;;;15.50;;
66264;SDS011;53055;44.648;21.148;2022-08-21T08:17:48;18.08;;;14.43;;
66264;SDS011;53055;44.648;21.148;2022-08-21T08:20:14;16.83;;;14.32;;
66264;SDS011;53055;44.648;21.148;2022-08-21T08:22:42;15.77;;;13.70;;
66264;SDS011;53055;44.648;21.148;2022-08-21T08:25:08;15.40;;;13.50;;
66264;SDS011;53055;44.648;21.148;2022-08-21T08:27:34;15.63;;;13.05;;
66264;SDS011;53055;44.648;21.148;2022-08-21T08:30:00;17.70;;;14.95;;
66264;SDS011;53055;44.648;21.148;2022-08-21T08:32:26;16.13;;;14.23;;
66264;SDS011;53055;44.648;21.148;2022-08-21T08:34:52;15.80;;;13.30;;
66264;SDS011;53055;44.648;21.148;2022-08-21T08:37:19;15.23;;;12.68;;
66264;SDS011;53055;44.648;21.148;2022-08-21T08:39:45;14.95;;;13.32;;
66264;SDS011;53055;44.648;21.148;2022-08-21T08:42:45;14.48;;;12.95;;
66264;SDS011;53055;44.648;21.148;2022-08-21T08:45:06;15.35;;;13.40;;
66264;SDS011;53055;44.648;21.148;2022-08-21T08:47:34;14.82;;;13.25;;
66264;SDS011;53055;44.648;21.148;2022-08-21T08:50:10;13.93;;;12.07;;
66264;SDS011;53055;44.648;21.148;2022-08-21T08:52:41;15.85;;;13.48;;
66264;SDS011;53055;44.648;21.148;2022-08-21T08:57:35;16.67;;;13.75;;
66264;SDS011;53055;44.648;21.148;2022-08-21T09:00:07;14.35;;;12.85;;
66264;SDS011;53055;44.648;21.148;2022-08-21T09:02:34;14.88;;;13.38;;
66264;SDS011;53055;44.648;21.148;2022-08-21T09:05:01;16.73;;;13.68;;
66264;SDS011;53055;44.648;21.148;2022-08-21T09:18:09;17.50;;;15.80;;
66264;SDS011;53055;44.648;21.148;2022-08-21T09:23:21;16.65;;;14.63;;
66264;SDS011;53055;44.648;21.148;2022-08-21T09:26:12;15.70;;;14.02;;
66264;SDS011;53055;44.648;21.148;2022-08-21T09:28:39;14.48;;;13.00;;
66264;SDS011;53055;44.648;21.148;2022-08-21T09:31:11;14.68;;;13.18;;
66264;SDS011;53055;44.648;21.148;2022-08-21T09:36:08;20.13;;;18.23;;
66264;SDS011;53055;44.648;21.148;2022-08-21T09:38:35;19.95;;;18.05;;
66264;SDS011;53055;44.648;21.148;2022-08-21T09:41:06;19.35;;;17.55;;
66264;SDS011;53055;44.648;21.148;2022-08-21T09:43:33;18.70;;;16.80;;
66264;SDS011;53055;44.648;21.148;2022-08-21T09:48:39;19.85;;;17.75;;
66264;SDS011;53055;44.648;21.148;2022-08-21T09:51:06;21.27;;;19.08;;
66264;SDS011;53055;44.648;21.148;2022-08-21T09:53:34;20.88;;;18.77;;
66264;SDS011;53055;44.648;21.148;2022-08-21T09:56:04;22.17;;;19.60;;
66264;SDS011;53055;44.648;21.148;2022-08-21T09:58:50;22.20;;;19.85;;
66264;SDS011;53055;44.648;21.148;2022-08-21T10:01:17;22.25;;;19.50;;
66264;SDS011;53055;44.648;21.148;2022-08-21T10:03:44;23.27;;;20.88;;
66264;SDS011;53055;44.648;21.148;2022-08-21T10:06:19;20.50;;;18.42;;
66264;SDS011;53055;44.648;21.148;2022-08-21T10:08:46;23.58;;;18.13;;
66264;SDS011;53055;44.648;21.148;2022-08-21T10:11:13;21.00;;;18.77;;
66264;SDS011;53055;44.648;21.148;2022-08-21T10:21:23;18.35;;;16.08;;
66264;SDS011;53055;44.648;21.148;2022-08-21T10:36:33;17.58;;;15.30;;
66264;SDS011;53055;44.648;21.148;2022-08-21T10:46:44;14.75;;;12.80;;
66264;SDS011;53055;44.648;21.148;2022-08-21T10:49:17;14.30;;;12.82;;
66264;SDS011;53055;44.648;21.148;2022-08-21T10:54:23;15.23;;;12.57;;
66264;SDS011;53055;44.648;21.148;2022-08-21T10:56:56;14.07;;;12.00;;
66264;SDS011;53055;44.648;21.148;2022-08-21T11:04:34;13.85;;;11.55;;
66264;SDS011;53055;44.648;21.148;2022-08-21T11:07:22;12.50;;;11.20;;
66264;SDS011;53055;44.648;21.148;2022-08-21T11:09:50;13.30;;;12.00;;
66264;SDS011;53055;44.648;21.148;2022-08-21T11:14:49;15.30;;;13.00;;
66264;SDS011;53055;44.648;21.148;2022-08-21T11:17:37;14.80;;;13.20;;
66264;SDS011;53055;44.648;21.148;2022-08-21T11:20:08;16.05;;;13.05;;
66264;SDS011;53055;44.648;21.148;2022-08-21T11:22:54;14.10;;;12.50;;
66264;SDS011;53055;44.648;21.148;2022-08-21T11:25:40;15.07;;;13.48;;
66264;SDS011;53055;44.648;21.148;2022-08-21T11:28:09;15.07;;;13.23;;
66264;SDS011;53055;44.648;21.148;2022-08-21T11:30:43;15.50;;;13.52;;
66264;SDS011;53055;44.648;21.148;2022-08-21T11:43:33;16.55;;;14.95;;
66264;SDS011;53055;44.648;21.148;2022-08-21T11:51:38;18.00;;;16.13;;
66264;SDS011;53055;44.648;21.148;2022-08-21T11:54:12;17.90;;;15.90;;
66264;SDS011;53055;44.648;21.148;2022-08-21T11:56:46;16.33;;;11.95;;
66264;SDS011;53055;44.648;21.148;2022-08-21T12:02:06;58.83;;;25.48;;
66264;SDS011;53055;44.648;21.148;2022-08-21T12:04:35;40.30;;;22.50;;
66264;SDS011;53055;44.648;21.148;2022-08-21T12:07:12;48.22;;;24.58;;
66264;SDS011;53055;44.648;21.148;2022-08-21T12:09:38;67.88;;;27.50;;
66264;SDS011;53055;44.648;21.148;2022-08-21T12:12:06;22.35;;;15.73;;
66264;SDS011;53055;44.648;21.148;2022-08-21T12:14:40;37.20;;;16.33;;
66264;SDS011;53055;44.648;21.148;2022-08-21T12:17:07;21.75;;;15.27;;
66264;SDS011;53055;44.648;21.148;2022-08-21T12:19:34;18.85;;;14.80;;
66264;SDS011;53055;44.648;21.148;2022-08-21T12:29:37;13.98;;;12.57;;
66264;SDS011;53055;44.648;21.148;2022-08-21T12:32:18;14.10;;;12.63;;
66264;SDS011;53055;44.648;21.148;2022-08-21T12:34:53;14.50;;;13.18;;
66264;SDS011;53055;44.648;21.148;2022-08-21T12:37:29;14.93;;;13.55;;
66264;SDS011;53055;44.648;21.148;2022-08-21T12:39:57;14.77;;;13.48;;
66264;SDS011;53055;44.648;21.148;2022-08-21T12:42:36;14.93;;;13.50;;
66264;SDS011;53055;44.648;21.148;2022-08-21T12:45:06;13.77;;;12.48;;
66264;SDS011;53055;44.648;21.148;2022-08-21T12:47:47;13.38;;;12.05;;
66264;SDS011;53055;44.648;21.148;2022-08-21T12:50:21;13.32;;;12.13;;
66264;SDS011;53055;44.648;21.148;2022-08-21T12:55:26;11.20;;;10.20;;
66264;SDS011;53055;44.648;21.148;2022-08-21T12:57:52;10.77;;;9.68;;
66264;SDS011;53055;44.648;21.148;2022-08-21T13:00:20;12.20;;;11.00;;
66264;SDS011;53055;44.648;21.148;2022-08-21T13:02:47;12.35;;;10.15;;
66264;SDS011;53055;44.648;21.148;2022-08-21T13:05:15;11.43;;;10.27;;
66264;SDS011;53055;44.648;21.148;2022-08-21T13:07:48;10.75;;;9.45;;
66264;SDS011;53055;44.648;21.148;2022-08-21T13:10:22;10.07;;;8.98;;
66264;SDS011;53055;44.648;21.148;2022-08-21T13:12:49;10.35;;;8.95;;
66264;SDS011;53055;44.648;21.148;2022-08-21T13:15:21;10.65;;;9.18;;
66264;SDS011;53055;44.648;21.148;2022-08-21T13:17:48;10.07;;;8.60;;
66264;SDS011;53055;44.648;21.148;2022-08-21T13:22:44;10.95;;;8.20;;
66264;SDS011;53055;44.648;21.148;2022-08-21T13:25:12;10.52;;;8.95;;
66264;SDS011;53055;44.648;21.148;2022-08-21T13:27:39;10.38;;;7.70;;
66264;SDS011;53055;44.648;21.148;2022-08-21T13:30:07;10.05;;;6.82;;
66264;SDS011;53055;44.648;21.148;2022-08-21T13:32:35;8.48;;;7.03;;
66264;SDS011;53055;44.648;21.148;2022-08-21T13:35:10;9.63;;;6.80;;
66264;SDS011;53055;44.648;21.148;2022-08-21T13:37:38;9.48;;;6.53;;
66264;SDS011;53055;44.648;21.148;2022-08-21T13:40:06;8.15;;;6.10;;
66264;SDS011;53055;44.648;21.148;2022-08-21T13:42:32;7.85;;;5.97;;
66264;SDS011;53055;44.648;21.148;2022-08-21T13:44:58;7.57;;;4.97;;
66264;SDS011;53055;44.648;21.148;2022-08-21T13:47:24;7.38;;;4.15;;
66264;SDS011;53055;44.648;21.148;2022-08-21T13:49:51;7.13;;;4.20;;
66264;SDS011;53055;44.648;21.148;2022-08-21T13:52:20;7.18;;;4.18;;
66264;SDS011;53055;44.648;21.148;2022-08-21T13:57:19;8.10;;;6.05;;
66264;SDS011;53055;44.648;21.148;2022-08-21T13:59:50;10.85;;;9.75;;
66264;SDS011;53055;44.648;21.148;2022-08-21T14:02:21;10.82;;;9.85;;
66264;SDS011;53055;44.648;21.148;2022-08-21T14:04:56;8.98;;;8.18;;
66264;SDS011;53055;44.648;21.148;2022-08-21T14:07:28;7.25;;;4.78;;
66264;SDS011;53055;44.648;21.148;2022-08-21T14:09:55;6.75;;;4.60;;
66264;SDS011;53055;44.648;21.148;2022-08-21T14:14:50;5.18;;;2.90;;
66264;SDS011;53055;44.648;21.148;2022-08-21T14:17:32;4.45;;;2.30;;
66264;SDS011;53055;44.648;21.148;2022-08-21T14:19:58;5.30;;;3.03;;
66264;SDS011;53055;44.648;21.148;2022-08-21T14:25:43;5.45;;;2.53;;
66264;SDS011;53055;44.648;21.148;2022-08-21T14:30:28;4.65;;;3.00;;
66264;SDS011;53055;44.648;21.148;2022-08-21T14:32:55;5.93;;;3.50;;
66264;SDS011;53055;44.648;21.148;2022-08-21T14:35:21;5.82;;;3.92;;
66264;SDS011;53055;44.648;21.148;2022-08-21T14:37:47;5.15;;;3.67;;
66264;SDS011;53055;44.648;21.148;2022-08-21T14:40:16;6.10;;;3.95;;
66264;SDS011;53055;44.648;21.148;2022-08-21T14:42:43;6.60;;;4.10;;
66264;SDS011;53055;44.648;21.148;2022-08-21T14:45:30;7.22;;;4.55;;
66264;SDS011;53055;44.648;21.148;2022-08-21T14:47:56;7.07;;;4.85;;
66264;SDS011;53055;44.648;21.148;2022-08-21T14:50:23;6.13;;;4.78;;
66264;SDS011;53055;44.648;21.148;2022-08-21T14:52:49;7.55;;;4.47;;
66264;SDS011;53055;44.648;21.148;2022-08-21T14:55:15;7.68;;;5.13;;
66264;SDS011;53055;44.648;21.148;2022-08-21T14:57:46;6.47;;;4.53;;
66264;SDS011;53055;44.648;21.148;2022-08-21T15:00:14;6.85;;;4.97;;
66264;SDS011;53055;44.648;21.148;2022-08-21T15:02:41;6.30;;;4.70;;
66264;SDS011;53055;44.648;21.148;2022-08-21T15:05:08;6.72;;;4.45;;
66264;SDS011;53055;44.648;21.148;2022-08-21T15:07:34;7.25;;;4.85;;
66264;SDS011;53055;44.648;21.148;2022-08-21T15:10:00;6.55;;;4.47;;
66264;SDS011;53055;44.648;21.148;2022-08-21T15:12:26;6.28;;;4.57;;
66264;SDS011;53055;44.648;21.148;2022-08-21T15:14:52;6.22;;;4.13;;
66264;SDS011;53055;44.648;21.148;2022-08-21T15:17:18;6.88;;;3.90;;
66264;SDS011;53055;44.648;21.148;2022-08-21T15:19:45;5.70;;;4.05;;
66264;SDS011;53055;44.648;21.148;2022-08-21T15:22:11;6.30;;;4.25;;
66264;SDS011;53055;44.648;21.148;2022-08-21T15:24:37;5.43;;;3.72;;
66264;SDS011;53055;44.648;21.148;2022-08-21T15:27:03;5.53;;;3.65;;
66264;SDS011;53055;44.648;21.148;2022-08-21T15:29:32;5.75;;;3.45;;
66264;SDS011;53055;44.648;21.148;2022-08-21T15:32:00;5.40;;;3.50;;
66264;SDS011;53055;44.648;21.148;2022-08-21T15:34:27;5.50;;;3.28;;
66264;SDS011;53055;44.648;21.148;2022-08-21T15:36:54;5.32;;;3.55;;
66264;SDS011;53055;44.648;21.148;2022-08-21T15:39:20;5.10;;;3.42;;
66264;SDS011;53055;44.648;21.148;2022-08-21T15:41:46;4.78;;;3.10;;
66264;SDS011;53055;44.648;21.148;2022-08-21T15:44:12;4.82;;;2.90;;
66264;SDS011;53055;44.648;21.148;2022-08-21T15:46:39;5.45;;;2.80;;
66264;SDS011;53055;44.648;21.148;2022-08-21T15:49:06;6.18;;;2.55;;
66264;SDS011;53055;44.648;21.148;2022-08-21T15:51:33;4.72;;;2.50;;
66264;SDS011;53055;44.648;21.148;2022-08-21T15:53:59;5.03;;;2.22;;
66264;SDS011;53055;44.648;21.148;2022-08-21T15:56:32;3.75;;;2.00;;
66264;SDS011;53055;44.648;21.148;2022-08-21T15:59:00;3.60;;;2.10;;
66264;SDS011;53055;44.648;21.148;2022-08-21T16:01:27;3.63;;;1.80;;
66264;SDS011;53055;44.648;21.148;2022-08-21T16:03:53;3.33;;;1.88;;
66264;SDS011;53055;44.648;21.148;2022-08-21T16:06:20;4.18;;;1.73;;